Time,TemperatureF,DewpointF,PressureIn,WindDirection,WindDirectionDegrees,WindSpeedMPH,WindSpeedGustMPH,Humidity,HourlyPrecipIn,Conditions,Clouds,dailyrainin,SolarRadiationWatts/m^2,SoftwareType,DateUTC
2013-09-30 00:23:00,65.0,64.0,-100.00,NW,314,1.0,3.0,97,0.00,,,0.00,1.000000,,2013-09-30 05:23:00,
2013-09-30 00:34:00,65.0,64.0,-100.00,NW,314,1.0,3.0,97,0.00,,,0.00,1.000000,,2013-09-30 05:34:00,
2013-09-30 00:43:00,65.0,64.0,-100.00,NW,314,1.0,3.0,97,0.00,,,0.00,1.000000,,2013-09-30 05:43:00,
2013-09-30 00:52:00,65.0,64.0,-100.00,NW,314,1.0,3.0,97,0.00,,,0.00,1.000000,,2013-09-30 05:52:00,
2013-09-30 01:22:00,65.0,65.0,-100.00,NW,324,2.0,5.0,99,0.00,,,0.00,1.000000,,2013-09-30 06:22:00,
2013-09-30 01:32:00,65.0,65.0,-100.00,NW,324,2.0,5.0,99,0.00,,,0.00,1.000000,,2013-09-30 06:32:00,
2013-09-30 01:42:00,65.0,65.0,-100.00,NW,324,2.0,5.0,99,0.00,,,0.00,1.000000,,2013-09-30 06:42:00,
2013-09-30 01:52:00,65.0,65.0,-100.00,NW,324,2.0,5.0,99,0.00,,,0.00,1.000000,,2013-09-30 06:52:00,
2013-09-30 02:22:00,65.0,65.0,-100.00,NNW,327,0.0,4.0,99,0.00,,,0.00,1.000000,,2013-09-30 07:22:00,
2013-09-30 02:32:00,65.0,65.0,-100.00,NNW,327,0.0,4.0,99,0.00,,,0.00,1.000000,,2013-09-30 07:32:00,
2013-09-30 02:42:00,65.0,65.0,-100.00,NNW,327,0.0,4.0,99,0.00,,,0.00,1.000000,,2013-09-30 07:42:00,
2013-09-30 02:52:00,65.0,65.0,-100.00,NNW,327,0.0,4.0,99,0.00,,,0.00,1.000000,,2013-09-30 07:52:00,
2013-09-30 03:22:00,65.0,65.0,-100.00,NNE,25,2.0,4.0,99,0.00,,,0.00,1.000000,,2013-09-30 08:22:00,
2013-09-30 03:32:00,65.0,65.0,-100.00,NNE,25,2.0,4.0,99,0.00,,,0.00,1.000000,,2013-09-30 08:32:00,
2013-09-30 03:42:00,65.0,65.0,-100.00,NNE,25,2.0,4.0,99,0.00,,,0.00,1.000000,,2013-09-30 08:42:00,
2013-09-30 03:52:00,65.0,65.0,-100.00,NNE,25,2.0,4.0,99,0.00,,,0.00,1.000000,,2013-09-30 08:52:00,
2013-09-30 03:53:00,66.0,66.0,-100.00,NNW,347,1.0,4.0,99,0.00,,,0.00,1.000000,,2013-09-30 08:53:00,
2013-09-30 04:22:00,66.0,66.0,-100.00,NNW,347,1.0,4.0,99,0.00,,,0.00,1.000000,,2013-09-30 09:22:00,
2013-09-30 04:33:00,66.0,66.0,-100.00,NNW,347,1.0,4.0,99,0.00,,,0.00,1.000000,,2013-09-30 09:33:00,
2013-09-30 04:42:00,66.0,66.0,-100.00,NNW,347,1.0,4.0,99,0.00,,,0.00,1.000000,,2013-09-30 09:42:00,
2013-09-30 04:53:00,66.0,66.0,-100.00,NW,322,0.0,2.0,99,0.00,,,0.00,1.000000,,2013-09-30 09:53:00,
2013-09-30 05:23:00,66.0,66.0,-100.00,NW,322,0.0,2.0,99,0.00,,,0.00,1.000000,,2013-09-30 10:23:00,
2013-09-30 05:32:00,66.0,66.0,-100.00,NW,322,0.0,2.0,99,0.00,,,0.00,1.000000,,2013-09-30 10:32:00,
2013-09-30 05:42:00,66.0,66.0,-100.00,NW,322,0.0,2.0,99,0.00,,,0.00,1.000000,,2013-09-30 10:42:00,
2013-09-30 06:22:00,65.0,65.0,-100.00,North,355,2.0,4.0,99,0.00,,,0.00,1.000000,,2013-09-30 11:22:00,
2013-09-30 06:33:00,65.0,65.0,-100.00,North,355,2.0,4.0,99,0.00,,,0.00,1.000000,,2013-09-30 11:33:00,
2013-09-30 06:43:00,65.0,65.0,-100.00,North,355,2.0,4.0,99,0.00,,,0.00,1.000000,,2013-09-30 11:43:00,
2013-09-30 06:52:00,65.0,65.0,-100.00,North,355,2.0,4.0,99,0.00,,,0.00,1.000000,,2013-09-30 11:52:00,
2013-09-30 07:22:00,65.0,65.0,-100.00,WNW,291,0.0,3.0,99,0.00,,,0.00,1.000000,,2013-09-30 12:22:00,
2013-09-30 07:32:00,65.0,65.0,-100.00,WNW,291,0.0,3.0,99,0.00,,,0.00,1.000000,,2013-09-30 12:32:00,
2013-09-30 07:42:00,65.0,65.0,-100.00,WNW,291,0.0,3.0,99,0.00,,,0.00,1.000000,,2013-09-30 12:42:00,
2013-09-30 07:52:00,65.0,65.0,-100.00,WNW,291,0.0,3.0,99,0.00,,,0.00,1.000000,,2013-09-30 12:52:00,
2013-09-30 08:22:00,65.0,65.0,-100.00,WSW,256,2.0,4.0,99,0.00,,,0.00,10.000000,,2013-09-30 13:22:00,
2013-09-30 08:32:00,65.0,65.0,-100.00,WSW,256,2.0,4.0,99,0.00,,,0.00,10.000000,,2013-09-30 13:32:00,
2013-09-30 08:42:00,65.0,65.0,-100.00,WSW,256,2.0,4.0,99,0.00,,,0.00,10.000000,,2013-09-30 13:42:00,
2013-09-30 08:52:00,65.0,65.0,-100.00,WSW,256,2.0,4.0,99,0.00,,,0.00,10.000000,,2013-09-30 13:52:00,
2013-09-30 09:22:00,66.0,66.0,-100.00,WNW,288,2.0,4.0,99,0.00,,,0.00,61.000000,,2013-09-30 14:22:00,
2013-09-30 09:32:00,66.0,66.0,-100.00,WNW,288,2.0,4.0,99,0.00,,,0.00,61.000000,,2013-09-30 14:32:00,
2013-09-30 09:42:00,66.0,66.0,-100.00,WNW,288,2.0,4.0,99,0.00,,,0.00,61.000000,,2013-09-30 14:42:00,
2013-09-30 09:52:00,66.0,66.0,-100.00,WNW,288,2.0,4.0,99,0.00,,,0.00,61.000000,,2013-09-30 14:52:00,
2013-09-30 09:53:00,67.0,65.0,-100.00,West,277,3.0,5.0,94,0.00,,,-99.99,112.000000,,2013-09-30 14:53:00,
2013-09-30 10:23:00,67.0,65.0,-100.00,West,277,3.0,5.0,94,0.00,,,-99.99,112.000000,,2013-09-30 15:23:00,
2013-09-30 10:34:00,67.0,65.0,-100.00,West,277,3.0,5.0,94,0.00,,,-99.99,112.000000,,2013-09-30 15:34:00,
2013-09-30 10:45:00,67.0,65.0,-100.00,West,277,3.0,5.0,94,0.00,,,-99.99,112.000000,,2013-09-30 15:45:00,
2013-09-30 10:53:00,69.0,65.0,-100.00,North,350,4.0,9.0,87,0.00,,,0.00,248.000000,,2013-09-30 15:53:00,
2013-09-30 11:24:00,69.0,65.0,-100.00,North,350,4.0,9.0,87,0.00,,,0.00,248.000000,,2013-09-30 16:24:00,
2013-09-30 11:34:00,69.0,65.0,-100.00,North,350,4.0,9.0,87,0.00,,,0.00,248.000000,,2013-09-30 16:34:00,
2013-09-30 11:44:00,69.0,65.0,-100.00,North,350,4.0,9.0,87,0.00,,,0.00,248.000000,,2013-09-30 16:44:00,
2013-09-30 11:53:00,72.0,65.0,-100.00,North,352,4.0,7.0,78,0.00,,,0.00,278.000000,,2013-09-30 16:53:00,
2013-09-30 12:23:00,72.0,65.0,-100.00,North,352,4.0,7.0,78,0.00,,,0.00,278.000000,,2013-09-30 17:23:00,
2013-09-30 12:34:00,72.0,65.0,-100.00,North,352,4.0,7.0,78,0.00,,,0.00,278.000000,,2013-09-30 17:34:00,
2013-09-30 12:43:00,72.0,65.0,-100.00,North,352,4.0,7.0,78,0.00,,,0.00,278.000000,,2013-09-30 17:43:00,
2013-09-30 12:53:00,72.0,65.0,-100.00,North,358,5.0,9.0,78,0.00,,,0.00,506.000000,,2013-09-30 17:53:00,
2013-09-30 13:22:00,72.0,65.0,-100.00,North,358,5.0,9.0,78,0.00,,,0.00,506.000000,,2013-09-30 18:22:00,
2013-09-30 13:32:00,72.0,65.0,-100.00,North,358,5.0,9.0,78,0.00,,,0.00,506.000000,,2013-09-30 18:32:00,
2013-09-30 13:42:00,72.0,65.0,-100.00,North,358,5.0,9.0,78,0.00,,,0.00,506.000000,,2013-09-30 18:42:00,
2013-09-30 13:53:00,73.0,65.0,-100.00,North,357,4.0,7.0,75,0.00,,,0.00,325.000000,,2013-09-30 18:53:00,
2013-09-30 14:22:00,73.0,65.0,-100.00,North,357,4.0,7.0,75,0.00,,,0.00,325.000000,,2013-09-30 19:22:00,
2013-09-30 14:32:00,73.0,65.0,-100.00,North,357,4.0,7.0,75,0.00,,,0.00,325.000000,,2013-09-30 19:32:00,
2013-09-30 14:42:00,73.0,65.0,-100.00,North,357,4.0,7.0,75,0.00,,,0.00,325.000000,,2013-09-30 19:42:00,
2013-09-30 14:53:00,76.0,65.0,-100.00,West,274,3.0,7.0,70,0.00,,,0.00,359.000000,,2013-09-30 19:53:00,
2013-09-30 15:23:00,76.0,65.0,-100.00,West,274,3.0,7.0,70,0.00,,,0.00,359.000000,,2013-09-30 20:23:00,
2013-09-30 15:33:00,76.0,65.0,-100.00,West,274,3.0,7.0,70,0.00,,,0.00,359.000000,,2013-09-30 20:33:00,
2013-09-30 15:43:00,76.0,65.0,-100.00,West,274,3.0,7.0,70,0.00,,,0.00,359.000000,,2013-09-30 20:43:00,
2013-09-30 15:53:00,75.0,65.0,-100.00,NW,324,6.0,10.0,71,0.00,,,0.00,385.000000,,2013-09-30 20:53:00,
2013-09-30 16:22:00,75.0,65.0,-100.00,NW,324,6.0,10.0,71,0.00,,,0.00,385.000000,,2013-09-30 21:22:00,
2013-09-30 16:34:00,75.0,65.0,-100.00,NW,324,6.0,10.0,71,0.00,,,0.00,385.000000,,2013-09-30 21:34:00,
2013-09-30 16:44:00,75.0,65.0,-100.00,NW,324,6.0,10.0,71,0.00,,,0.00,385.000000,,2013-09-30 21:44:00,
2013-09-30 16:53:00,73.0,66.0,-100.00,North,358,7.0,11.0,80,0.00,,,0.00,199.000000,,2013-09-30 21:53:00,
2013-09-30 17:24:00,73.0,66.0,-100.00,North,358,7.0,11.0,80,0.00,,,0.00,199.000000,,2013-09-30 22:24:00,
2013-09-30 17:34:00,73.0,66.0,-100.00,North,358,7.0,11.0,80,0.00,,,0.00,199.000000,,2013-09-30 22:34:00,
2013-09-30 17:44:00,73.0,66.0,-100.00,North,358,7.0,11.0,80,0.00,,,0.00,199.000000,,2013-09-30 22:44:00,
2013-09-30 17:53:00,72.0,67.0,-100.00,NNW,342,7.0,12.0,83,0.00,,,0.00,164.000000,,2013-09-30 22:53:00,
2013-09-30 18:23:00,72.0,67.0,-100.00,NNW,342,7.0,12.0,83,0.00,,,0.00,164.000000,,2013-09-30 23:23:00,
2013-09-30 18:34:00,72.0,67.0,-100.00,NNW,342,7.0,12.0,83,0.00,,,0.00,164.000000,,2013-09-30 23:34:00,
2013-09-30 18:43:00,72.0,67.0,-100.00,NNW,342,7.0,12.0,83,0.00,,,0.00,164.000000,,2013-09-30 23:43:00,
2013-09-30 19:23:00,69.0,66.0,-100.00,NNW,337,4.0,10.0,91,0.00,,,0.00,23.000000,,2013-10-01 00:23:00,
2013-09-30 19:32:00,69.0,66.0,-100.00,NNW,337,4.0,10.0,91,0.00,,,0.00,23.000000,,2013-10-01 00:32:00,
2013-09-30 19:43:00,69.0,66.0,-100.00,NNW,337,4.0,10.0,91,0.00,,,0.00,23.000000,,2013-10-01 00:43:00,
2013-09-30 19:52:00,69.0,66.0,-100.00,NNW,337,4.0,10.0,91,0.00,,,0.00,23.000000,,2013-10-01 00:52:00,
2013-09-30 20:21:00,68.0,66.0,-100.00,NNW,340,4.0,7.0,94,0.00,,,-99.99,1.000000,,2013-10-01 01:21:00,
2013-09-30 20:33:00,68.0,66.0,-100.00,NNW,340,4.0,7.0,94,0.00,,,-99.99,1.000000,,2013-10-01 01:33:00,
2013-09-30 20:42:00,68.0,66.0,-100.00,NNW,340,4.0,7.0,94,0.00,,,-99.99,1.000000,,2013-10-01 01:42:00,
2013-09-30 20:52:00,68.0,66.0,-100.00,NNW,340,4.0,7.0,94,0.00,,,-99.99,1.000000,,2013-10-01 01:52:00,
2013-09-30 21:22:00,68.0,67.0,-100.00,NNW,346,4.0,9.0,95,0.00,,,0.00,1.000000,,2013-10-01 02:22:00,
2013-09-30 21:33:00,68.0,67.0,-100.00,NNW,346,4.0,9.0,95,0.00,,,0.00,1.000000,,2013-10-01 02:33:00,
2013-09-30 21:43:00,68.0,67.0,-100.00,NNW,346,4.0,9.0,95,0.00,,,0.00,1.000000,,2013-10-01 02:43:00,
2013-09-30 21:52:00,68.0,67.0,-100.00,NNW,346,4.0,9.0,95,0.00,,,0.00,1.000000,,2013-10-01 02:52:00,
2013-09-30 21:53:00,67.0,66.0,-100.00,NNW,347,5.0,8.0,97,0.00,,,0.00,1.000000,,2013-10-01 02:53:00,
2013-09-30 22:22:00,67.0,66.0,-100.00,NNW,347,5.0,8.0,97,0.00,,,0.00,1.000000,,2013-10-01 03:22:00,
2013-09-30 22:34:00,67.0,66.0,-100.00,NNW,347,5.0,8.0,97,0.00,,,0.00,1.000000,,2013-10-01 03:34:00,
2013-09-30 22:44:00,67.0,66.0,-100.00,NNW,347,5.0,8.0,97,0.00,,,0.00,1.000000,,2013-10-01 03:44:00,
2013-09-30 23:24:00,67.0,66.0,-100.00,North,354,4.0,9.0,97,0.00,,,0.00,1.000000,,2013-10-01 04:24:00,